sensor_id;sensor_type;location;lat;lon;timestamp;pressure;altitude;pressure_sealevel;temperature;humidity
46954;BME280;32707;43.886;12.874;2022-09-09T00:02:24;101017.69;;;23.80;64.95
46954;BME280;32707;43.886;12.874;2022-09-09T00:05:00;101019.72;;;23.76;65.19
46954;BME280;32707;43.886;12.874;2022-09-09T00:13:00;101009.50;;;23.68;65.16
46954;BME280;32707;43.886;12.874;2022-09-09T00:18:10;101018.88;;;23.65;65.43
46954;BME280;32707;43.886;12.874;2022-09-09T00:23:27;101018.06;;;23.64;65.61
46954;BME280;32707;43.886;12.874;2022-09-09T00:26:04;101013.19;;;23.65;65.56
46954;BME280;32707;43.886;12.874;2022-09-09T00:28:31;101011.13;;;23.65;65.68
46954;BME280;32707;43.886;12.874;2022-09-09T00:31:08;101013.19;;;23.65;65.66
46954;BME280;32707;43.886;12.874;2022-09-09T00:33:36;101016.03;;;23.61;65.72
46954;BME280;32707;43.886;12.874;2022-09-09T00:36:12;101014.78;;;23.55;65.88
46954;BME280;32707;43.886;12.874;2022-09-09T00:38:51;101013.97;;;23.55;65.79
46954;BME280;32707;43.886;12.874;2022-09-09T00:46:56;101003.34;;;23.55;65.96
46954;BME280;32707;43.886;12.874;2022-09-09T00:49:47;101009.91;;;23.56;66.20
46954;BME280;32707;43.886;12.874;2022-09-09T00:52:57;101004.19;;;23.52;66.22
46954;BME280;32707;43.886;12.874;2022-09-09T00:56:03;101002.94;;;23.49;66.17
46954;BME280;32707;43.886;12.874;2022-09-09T00:58:30;101008.25;;;23.51;66.24
46954;BME280;32707;43.886;12.874;2022-09-09T01:01:09;101005.78;;;23.49;66.19
46954;BME280;32707;43.886;12.874;2022-09-09T01:11:52;100992.31;;;23.39;66.81
46954;BME280;32707;43.886;12.874;2022-09-09T01:16:46;100976.81;;;23.37;66.67
46954;BME280;32707;43.886;12.874;2022-09-09T01:19:19;100979.66;;;23.37;66.56
46954;BME280;32707;43.886;12.874;2022-09-09T01:22:06;100975.19;;;23.39;66.68
46954;BME280;32707;43.886;12.874;2022-09-09T01:27:05;100965.78;;;23.42;66.69
46954;BME280;32707;43.886;12.874;2022-09-09T01:29:32;100973.56;;;23.49;66.68
46954;BME280;32707;43.886;12.874;2022-09-09T01:32:35;100960.50;;;23.52;66.62
46954;BME280;32707;43.886;12.874;2022-09-09T01:34:47;100973.56;;;23.53;66.35
46954;BME280;32707;43.886;12.874;2022-09-09T01:37:13;100973.97;;;23.51;66.61
46954;BME280;32707;43.886;12.874;2022-09-09T01:39:40;100969.47;;;23.54;66.52
46954;BME280;32707;43.886;12.874;2022-09-09T01:42:09;100971.53;;;23.53;66.63
46954;BME280;32707;43.886;12.874;2022-09-09T01:44:36;100967.88;;;23.53;66.67
46954;BME280;32707;43.886;12.874;2022-09-09T01:47:02;100982.53;;;23.51;66.79
46954;BME280;32707;43.886;12.874;2022-09-09T01:49:28;100967.06;;;23.48;66.76
46954;BME280;32707;43.886;12.874;2022-09-09T01:51:55;100957.22;;;23.42;67.15
46954;BME280;32707;43.886;12.874;2022-09-09T01:54:24;100969.09;;;23.44;66.98
46954;BME280;32707;43.886;12.874;2022-09-09T02:02:11;100963.75;;;23.32;67.28
46954;BME280;32707;43.886;12.874;2022-09-09T02:07:39;100980.06;;;23.28;67.54
46954;BME280;32707;43.886;12.874;2022-09-09T02:11:17;100980.47;;;23.26;67.53
46954;BME280;32707;43.886;12.874;2022-09-09T02:13:14;100978.84;;;23.22;67.46
46954;BME280;32707;43.886;12.874;2022-09-09T02:18:11;100972.69;;;23.13;67.95
46954;BME280;32707;43.886;12.874;2022-09-09T02:20:39;100974.28;;;23.06;68.10
46954;BME280;32707;43.886;12.874;2022-09-09T02:23:07;100971.81;;;23.01;68.27
46954;BME280;32707;43.886;12.874;2022-09-09T02:25:36;100971.81;;;23.01;68.17
46954;BME280;32707;43.886;12.874;2022-09-09T02:28:04;100965.28;;;23.01;68.23
46954;BME280;32707;43.886;12.874;2022-09-09T02:30:33;100963.66;;;23.00;68.25
46954;BME280;32707;43.886;12.874;2022-09-09T02:33:02;100966.91;;;22.98;68.21
46954;BME280;32707;43.886;12.874;2022-09-09T02:35:29;100962.41;;;22.90;68.55
46954;BME280;32707;43.886;12.874;2022-09-09T02:37:59;100970.94;;;22.83;68.86
46954;BME280;32707;43.886;12.874;2022-09-09T02:40:26;100967.25;;;22.79;69.00
46954;BME280;32707;43.886;12.874;2022-09-09T02:42:54;100969.66;;;22.77;69.18
46954;BME280;32707;43.886;12.874;2022-09-09T02:45:23;100978.66;;;22.75;69.19
46954;BME280;32707;43.886;12.874;2022-09-09T02:47:59;100970.09;;;22.71;69.21
46954;BME280;32707;43.886;12.874;2022-09-09T02:53:39;100959.50;;;22.79;69.37
46954;BME280;32707;43.886;12.874;2022-09-09T02:56:14;100961.56;;;22.79;69.42
46954;BME280;32707;43.886;12.874;2022-09-09T02:58:41;100968.88;;;22.80;69.50
46954;BME280;32707;43.886;12.874;2022-09-09T03:01:07;100958.72;;;22.79;69.43
46954;BME280;32707;43.886;12.874;2022-09-09T03:03:34;100953.00;;;22.79;69.35
46954;BME280;32707;43.886;12.874;2022-09-09T03:06:00;100952.16;;;22.78;69.46
46954;BME280;32707;43.886;12.874;2022-09-09T03:08:25;100955.00;;;22.78;69.52
46954;BME280;32707;43.886;12.874;2022-09-09T03:10:54;100941.59;;;22.79;69.47
46954;BME280;32707;43.886;12.874;2022-09-09T03:13:19;100949.72;;;22.77;69.61
46954;BME280;32707;43.886;12.874;2022-09-09T03:15:45;100947.28;;;22.75;69.60
46954;BME280;32707;43.886;12.874;2022-09-09T03:18:10;100945.63;;;22.74;69.59
46954;BME280;32707;43.886;12.874;2022-09-09T03:20:36;100940.75;;;22.75;69.44
46954;BME280;32707;43.886;12.874;2022-09-09T03:23:01;100936.69;;;22.76;69.71
46954;BME280;32707;43.886;12.874;2022-09-09T03:25:28;100936.69;;;22.76;69.64
46954;BME280;32707;43.886;12.874;2022-09-09T03:27:54;100939.53;;;22.76;69.60
46954;BME280;32707;43.886;12.874;2022-09-09T03:30:24;100934.22;;;22.74;69.74
46954;BME280;32707;43.886;12.874;2022-09-09T03:32:50;100946.44;;;22.75;69.62
46954;BME280;32707;43.886;12.874;2022-09-09T03:35:18;100939.53;;;22.76;69.78
46954;BME280;32707;43.886;12.874;2022-09-09T03:37:44;100927.72;;;22.77;69.84
46954;BME280;32707;43.886;12.874;2022-09-09T03:40:10;100937.50;;;22.80;69.61
46954;BME280;32707;43.886;12.874;2022-09-09T03:42:37;100936.31;;;22.81;69.67
46954;BME280;32707;43.886;12.874;2022-09-09T03:45:08;100932.63;;;22.84;69.80
46954;BME280;32707;43.886;12.874;2022-09-09T03:47:35;100934.28;;;22.85;69.74
46954;BME280;32707;43.886;12.874;2022-09-09T03:50:01;100935.47;;;22.84;69.84
46954;BME280;32707;43.886;12.874;2022-09-09T03:52:27;100933.47;;;22.84;69.90
46954;BME280;32707;43.886;12.874;2022-09-09T03:54:53;100934.66;;;22.83;69.68
46954;BME280;32707;43.886;12.874;2022-09-09T03:57:20;100938.31;;;22.80;70.05
46954;BME280;32707;43.886;12.874;2022-09-09T03:59:45;100930.16;;;22.75;70.04
46954;BME280;32707;43.886;12.874;2022-09-09T04:02:11;100930.97;;;22.72;70.26
46954;BME280;32707;43.886;12.874;2022-09-09T04:04:36;100939.91;;;22.70;70.43
46954;BME280;32707;43.886;12.874;2022-09-09T04:07:02;100928.09;;;22.68;70.41
46954;BME280;32707;43.886;12.874;2022-09-09T04:09:27;100925.25;;;22.68;70.37
46954;BME280;32707;43.886;12.874;2022-09-09T04:11:53;100928.91;;;22.69;70.47
46954;BME280;32707;43.886;12.874;2022-09-09T04:14:19;100920.34;;;22.69;70.43
46954;BME280;32707;43.886;12.874;2022-09-09T04:16:45;100922.38;;;22.68;70.37
46954;BME280;32707;43.886;12.874;2022-09-09T04:19:11;100917.50;;;22.69;70.51
46954;BME280;32707;43.886;12.874;2022-09-09T04:21:39;100925.66;;;22.70;70.69
46954;BME280;32707;43.886;12.874;2022-09-09T04:24:05;100923.59;;;22.71;70.53
46954;BME280;32707;43.886;12.874;2022-09-09T04:26:31;100922.00;;;22.74;70.67
46954;BME280;32707;43.886;12.874;2022-09-09T04:28:57;100928.94;;;22.76;70.49
46954;BME280;32707;43.886;12.874;2022-09-09T04:31:23;100923.66;;;22.82;70.39
46954;BME280;32707;43.886;12.874;2022-09-09T04:33:52;100924.06;;;22.80;70.43
46954;BME280;32707;43.886;12.874;2022-09-09T04:36:18;100929.78;;;22.87;70.29
46954;BME280;32707;43.886;12.874;2022-09-09T04:38:45;100923.69;;;22.89;70.34
46954;BME280;32707;43.886;12.874;2022-09-09T04:41:10;100929.00;;;22.90;70.25
46954;BME280;32707;43.886;12.874;2022-09-09T04:43:37;100924.50;;;22.93;70.35
46954;BME280;32707;43.886;12.874;2022-09-09T04:46:03;100928.59;;;22.96;70.13
46954;BME280;32707;43.886;12.874;2022-09-09T04:48:29;100935.94;;;22.97;70.28
46954;BME280;32707;43.886;12.874;2022-09-09T04:51:02;100937.16;;;23.03;69.99
46954;BME280;32707;43.886;12.874;2022-09-09T04:53:28;100935.19;;;23.07;70.09
46954;BME280;32707;43.886;12.874;2022-09-09T04:56:07;100936.00;;;23.11;69.98
46954;BME280;32707;43.886;12.874;2022-09-09T04:58:35;100940.09;;;23.17;69.89
46954;BME280;32707;43.886;12.874;2022-09-09T05:03:33;100939.28;;;23.24;69.70
46954;BME280;32707;43.886;12.874;2022-09-09T05:06:06;100930.75;;;23.27;69.52
46954;BME280;32707;43.886;12.874;2022-09-09T05:08:34;100932.34;;;23.28;69.45
46954;BME280;32707;43.886;12.874;2022-09-09T05:10:59;100942.56;;;23.33;69.70
46954;BME280;32707;43.886;12.874;2022-09-09T05:13:26;100932.75;;;23.34;69.47
46954;BME280;32707;43.886;12.874;2022-09-09T05:15:53;100942.56;;;23.40;69.24
46954;BME280;32707;43.886;12.874;2022-09-09T05:18:19;100946.25;;;23.44;69.30
46954;BME280;32707;43.886;12.874;2022-09-09T05:20:45;100943.81;;;23.46;69.04
46954;BME280;32707;43.886;12.874;2022-09-09T05:23:10;100948.69;;;23.49;69.08
46954;BME280;32707;43.886;12.874;2022-09-09T05:25:39;100947.88;;;23.53;68.96
46954;BME280;32707;43.886;12.874;2022-09-09T05:28:08;100950.75;;;23.56;69.02
46954;BME280;32707;43.886;12.874;2022-09-09T05:30:34;100961.31;;;23.59;68.86
46954;BME280;32707;43.886;12.874;2022-09-09T05:32:59;100949.50;;;23.61;68.94
46954;BME280;32707;43.886;12.874;2022-09-09T05:35:25;100954.00;;;23.62;68.92
46954;BME280;32707;43.886;12.874;2022-09-09T05:37:51;100952.75;;;23.63;68.80
46954;BME280;32707;43.886;12.874;2022-09-09T05:40:16;100956.06;;;23.65;68.47
46954;BME280;32707;43.886;12.874;2022-09-09T05:42:42;100962.56;;;23.69;68.45
46954;BME280;32707;43.886;12.874;2022-09-09T05:45:08;100969.09;;;23.73;68.75
46954;BME280;32707;43.886;12.874;2022-09-09T05:47:34;100962.16;;;23.74;68.26
46954;BME280;32707;43.886;12.874;2022-09-09T05:50:01;100960.53;;;23.77;68.42
46954;BME280;32707;43.886;12.874;2022-09-09T05:52:26;100961.34;;;23.77;68.15
46954;BME280;32707;43.886;12.874;2022-09-09T05:54:52;100965.03;;;23.85;68.03
46954;BME280;32707;43.886;12.874;2022-09-09T05:57:20;100962.59;;;23.91;67.82
46954;BME280;32707;43.886;12.874;2022-09-09T05:59:46;100971.97;;;23.95;67.63
46954;BME280;32707;43.886;12.874;2022-09-09T06:02:11;100967.09;;;23.99;67.53
46954;BME280;32707;43.886;12.874;2022-09-09T06:04:37;100967.50;;;24.01;67.52
46954;BME280;32707;43.886;12.874;2022-09-09T06:07:04;100962.97;;;24.03;67.41
46954;BME280;32707;43.886;12.874;2022-09-09T06:09:30;100970.34;;;24.04;67.35
46954;BME280;32707;43.886;12.874;2022-09-09T06:11:56;100978.06;;;24.08;67.32
46954;BME280;32707;43.886;12.874;2022-09-09T06:14:23;100967.03;;;24.10;67.32
46954;BME280;32707;43.886;12.874;2022-09-09T06:16:51;100962.13;;;24.14;67.21
46954;BME280;32707;43.886;12.874;2022-09-09T06:19:17;100957.66;;;24.16;67.07
46954;BME280;32707;43.886;12.874;2022-09-09T06:21:42;100964.59;;;24.22;66.92
46954;BME280;32707;43.886;12.874;2022-09-09T06:24:09;100964.56;;;24.26;66.76
46954;BME280;32707;43.886;12.874;2022-09-09T06:26:37;100956.00;;;24.30;66.56
46954;BME280;32707;43.886;12.874;2022-09-09T06:29:05;100955.97;;;24.33;66.49
46954;BME280;32707;43.886;12.874;2022-09-09T06:31:33;100951.06;;;24.34;66.25
46954;BME280;32707;43.886;12.874;2022-09-09T06:34:05;100957.59;;;24.41;66.19
46954;BME280;32707;43.886;12.874;2022-09-09T06:36:33;100966.16;;;24.45;66.07
46954;BME280;32707;43.886;12.874;2022-09-09T06:38:59;100969.81;;;24.49;66.04
46954;BME280;32707;43.886;12.874;2022-09-09T06:41:27;100967.38;;;24.55;65.61
46954;BME280;32707;43.886;12.874;2022-09-09T06:43:53;100976.34;;;24.64;65.57
46954;BME280;32707;43.886;12.874;2022-09-09T06:46:30;100975.91;;;24.73;65.27
46954;BME280;32707;43.886;12.874;2022-09-09T06:48:57;100979.94;;;24.82;65.10
46954;BME280;32707;43.886;12.874;2022-09-09T06:51:29;100975.38;;;24.96;64.65
46954;BME280;32707;43.886;12.874;2022-09-09T06:53:59;100980.66;;;25.05;64.42
46954;BME280;32707;43.886;12.874;2022-09-09T06:56:38;100976.50;;;25.13;64.30
46954;BME280;32707;43.886;12.874;2022-09-09T06:59:07;100976.06;;;25.21;64.07
46954;BME280;32707;43.886;12.874;2022-09-09T07:01:42;100969.09;;;25.26;63.95
46954;BME280;32707;43.886;12.874;2022-09-09T07:04:12;100971.91;;;25.37;63.75
46954;BME280;32707;43.886;12.874;2022-09-09T07:06:40;100979.56;;;25.51;63.33
46954;BME280;32707;43.886;12.874;2022-09-09T07:09:10;100969.53;;;25.77;62.72
46954;BME280;32707;43.886;12.874;2022-09-09T07:11:42;100986.22;;;25.93;61.99
46954;BME280;32707;43.886;12.874;2022-09-09T07:14:08;100982.78;;;26.09;61.75
46954;BME280;32707;43.886;12.874;2022-09-09T07:16:34;100987.69;;;26.12;61.64
46954;BME280;32707;43.886;12.874;2022-09-09T07:19:03;100986.50;;;26.09;61.39
46954;BME280;32707;43.886;12.874;2022-09-09T07:21:30;100992.97;;;26.17;61.43
46954;BME280;32707;43.886;12.874;2022-09-09T07:23:56;100992.13;;;26.92;59.64
46954;BME280;32707;43.886;12.874;2022-09-09T07:26:24;100989.34;;;27.47;58.64
46954;BME280;32707;43.886;12.874;2022-09-09T07:28:52;100992.00;;;27.85;57.82
46954;BME280;32707;43.886;12.874;2022-09-09T07:31:27;100985.81;;;27.63;58.16
46954;BME280;32707;43.886;12.874;2022-09-09T07:33:53;100985.19;;;28.46;56.50
46954;BME280;32707;43.886;12.874;2022-09-09T07:36:31;100981.72;;;29.51;54.19
46954;BME280;32707;43.886;12.874;2022-09-09T07:39:03;100983.16;;;30.41;52.60
46954;BME280;32707;43.886;12.874;2022-09-09T07:44:07;100992.41;;;31.33;50.94
46954;BME280;32707;43.886;12.874;2022-09-09T07:46:33;100994.34;;;32.01;49.60
46954;BME280;32707;43.886;12.874;2022-09-09T07:48:59;101004.34;;;31.74;50.47
46954;BME280;32707;43.886;12.874;2022-09-09T07:51:28;100983.38;;;33.09;48.06
46954;BME280;32707;43.886;12.874;2022-09-09T07:53:57;100984.63;;;34.21;45.59
46954;BME280;32707;43.886;12.874;2022-09-09T07:56:24;100987.63;;;35.00;44.77
46954;BME280;32707;43.886;12.874;2022-09-09T07:58:52;100976.41;;;35.36;43.45
46954;BME280;32707;43.886;12.874;2022-09-09T08:01:26;100983.28;;;35.90;42.75
46954;BME280;32707;43.886;12.874;2022-09-09T08:04:06;100981.69;;;36.13;41.87
46954;BME280;32707;43.886;12.874;2022-09-09T08:06:39;100982.16;;;36.75;40.58
46954;BME280;32707;43.886;12.874;2022-09-09T08:09:06;100979.34;;;36.95;39.79
46954;BME280;32707;43.886;12.874;2022-09-09T08:11:33;100992.38;;;37.24;39.00
46954;BME280;32707;43.886;12.874;2022-09-09T08:13:59;100996.56;;;37.23;38.60
46954;BME280;32707;43.886;12.874;2022-09-09T08:16:27;100990.09;;;37.64;37.89
46954;BME280;32707;43.886;12.874;2022-09-09T08:18:53;100997.91;;;38.08;37.06
46954;BME280;32707;43.886;12.874;2022-09-09T08:21:25;100993.97;;;38.31;35.83
46954;BME280;32707;43.886;12.874;2022-09-09T08:23:55;101010.53;;;38.40;35.48
46954;BME280;32707;43.886;12.874;2022-09-09T08:26:25;101003.44;;;38.06;35.95
46954;BME280;32707;43.886;12.874;2022-09-09T08:28:53;100998.41;;;38.27;35.45
46954;BME280;32707;43.886;12.874;2022-09-09T08:31:24;100993.00;;;38.61;34.40
46954;BME280;32707;43.886;12.874;2022-09-09T08:33:49;101001.03;;;38.66;34.28
46954;BME280;32707;43.886;12.874;2022-09-09T08:36:20;100997.53;;;38.62;33.50
46954;BME280;32707;43.886;12.874;2022-09-09T08:38:51;100995.09;;;38.81;33.32
46954;BME280;32707;43.886;12.874;2022-09-09T08:52:25;100996.53;;;39.49;30.99
46954;BME280;32707;43.886;12.874;2022-09-09T08:54:53;100993.81;;;39.14;30.93
46954;BME280;32707;43.886;12.874;2022-09-09T08:57:26;100989.34;;;38.92;31.08
46954;BME280;32707;43.886;12.874;2022-09-09T08:59:52;100986.44;;;39.18;30.70
46954;BME280;32707;43.886;12.874;2022-09-09T09:02:35;100978.31;;;39.02;30.45
46954;BME280;32707;43.886;12.874;2022-09-09T09:12:56;100972.97;;;39.32;28.29
46954;BME280;32707;43.886;12.874;2022-09-09T09:15:28;100969.41;;;39.49;28.04
46954;BME280;32707;43.886;12.874;2022-09-09T09:17:56;100973.31;;;39.83;27.60
46954;BME280;32707;43.886;12.874;2022-09-09T09:20:41;100964.72;;;40.11;26.69
46954;BME280;32707;43.886;12.874;2022-09-09T09:23:17;100961.88;;;39.85;26.86
46954;BME280;32707;43.886;12.874;2022-09-09T09:25:46;100981.47;;;40.05;26.34
46954;BME280;32707;43.886;12.874;2022-09-09T09:28:29;100970.34;;;40.20;25.90
46954;BME280;32707;43.886;12.874;2022-09-09T09:36:07;100954.34;;;40.16;25.39
46954;BME280;32707;43.886;12.874;2022-09-09T09:38:34;100958.63;;;40.20;25.13
46954;BME280;32707;43.886;12.874;2022-09-09T09:41:00;100949.66;;;40.35;24.80
46954;BME280;32707;43.886;12.874;2022-09-09T09:43:35;100947.56;;;40.41;24.55
46954;BME280;32707;43.886;12.874;2022-09-09T09:46:04;100953.34;;;40.25;24.50
46954;BME280;32707;43.886;12.874;2022-09-09T09:48:30;100958.41;;;40.30;24.25
46954;BME280;32707;43.886;12.874;2022-09-09T09:51:02;100946.00;;;40.74;23.75
46954;BME280;32707;43.886;12.874;2022-09-09T09:53:34;100951.91;;;40.86;23.49
46954;BME280;32707;43.886;12.874;2022-09-09T09:58:33;100941.75;;;40.64;23.10
46954;BME280;32707;43.886;12.874;2022-09-09T10:01:04;100934.53;;;40.59;23.00
46954;BME280;32707;43.886;12.874;2022-09-09T10:03:32;100940.66;;;40.73;22.73
46954;BME280;32707;43.886;12.874;2022-09-09T10:05:58;100949.16;;;40.48;22.60
46954;BME280;32707;43.886;12.874;2022-09-09T10:08:25;100938.38;;;40.22;22.52
46954;BME280;32707;43.886;12.874;2022-09-09T10:10:59;100945.16;;;40.46;22.23
46954;BME280;32707;43.886;12.874;2022-09-09T10:19:13;100932.75;;;41.30;21.19
46954;BME280;32707;43.886;12.874;2022-09-09T10:24:53;100922.84;;;41.10;20.92
46954;BME280;32707;43.886;12.874;2022-09-09T10:27:36;100912.19;;;41.30;20.50
46954;BME280;32707;43.886;12.874;2022-09-09T10:30:19;100914.81;;;41.33;20.51
46954;BME280;32707;43.886;12.874;2022-09-09T10:35:30;100907.13;;;40.91;20.49
46954;BME280;32707;43.886;12.874;2022-09-09T10:38:16;100910.53;;;40.72;20.44
46954;BME280;32707;43.886;12.874;2022-09-09T10:54:13;100896.16;;;41.36;19.50
46954;BME280;32707;43.886;12.874;2022-09-09T10:56:44;100906.03;;;41.28;19.53
46954;BME280;32707;43.886;12.874;2022-09-09T10:59:20;100886.03;;;41.15;19.48
46954;BME280;32707;43.886;12.874;2022-09-09T11:01:53;100891.09;;;40.97;19.71
46954;BME280;32707;43.886;12.874;2022-09-09T11:04:24;100899.38;;;40.82;19.56
46954;BME280;32707;43.886;12.874;2022-09-09T11:06:54;100895.91;;;41.00;19.35
46954;BME280;32707;43.886;12.874;2022-09-09T11:09:24;100893.22;;;41.36;19.36
46954;BME280;32707;43.886;12.874;2022-09-09T11:11:55;100885.66;;;41.75;18.85
46954;BME280;32707;43.886;12.874;2022-09-09T11:14:41;100894.16;;;41.90;18.97
46954;BME280;32707;43.886;12.874;2022-09-09T11:17:18;100880.47;;;42.04;18.74
46954;BME280;32707;43.886;12.874;2022-09-09T11:19:45;100898.47;;;42.36;18.46
46954;BME280;32707;43.886;12.874;2022-09-09T11:25:10;100889.56;;;42.06;18.87
46954;BME280;32707;43.886;12.874;2022-09-09T11:30:22;100896.69;;;41.35;19.28
46954;BME280;32707;43.886;12.874;2022-09-09T11:33:03;100902.53;;;41.41;19.29
46954;BME280;32707;43.886;12.874;2022-09-09T11:38:28;100891.09;;;41.09;19.49
46954;BME280;32707;43.886;12.874;2022-09-09T11:41:00;100893.50;;;41.10;19.64
46954;BME280;32707;43.886;12.874;2022-09-09T11:43:31;100886.31;;;41.23;19.65
46954;BME280;32707;43.886;12.874;2022-09-09T11:46:01;100876.94;;;41.41;19.39
46954;BME280;32707;43.886;12.874;2022-09-09T11:51:10;100879.63;;;41.28;19.66
46954;BME280;32707;43.886;12.874;2022-09-09T11:56:31;100875.00;;;41.61;19.40
46954;BME280;32707;43.886;12.874;2022-09-09T11:59:21;100895.13;;;41.28;19.72
46954;BME280;32707;43.886;12.874;2022-09-09T12:02:29;100882.53;;;41.16;19.79
46954;BME280;32707;43.886;12.874;2022-09-09T12:05:09;100888.97;;;41.26;19.50
46954;BME280;32707;43.886;12.874;2022-09-09T12:10:29;100880.41;;;41.40;19.66
46954;BME280;32707;43.886;12.874;2022-09-09T12:13:17;100880.69;;;41.19;19.54
46954;BME280;32707;43.886;12.874;2022-09-09T12:15:54;100882.84;;;41.07;19.70
46954;BME280;32707;43.886;12.874;2022-09-09T12:18:40;100888.69;;;40.73;19.92
46954;BME280;32707;43.886;12.874;2022-09-09T12:23:55;100892.69;;;40.65;20.11
46954;BME280;32707;43.886;12.874;2022-09-09T12:26:28;100873.72;;;40.54;20.10
46954;BME280;32707;43.886;12.874;2022-09-09T12:31:57;100875.59;;;40.35;20.17
46954;BME280;32707;43.886;12.874;2022-09-09T12:34:33;100878.78;;;40.37;19.93
46954;BME280;32707;43.886;12.874;2022-09-09T12:39:59;100873.38;;;40.18;20.11
46954;BME280;32707;43.886;12.874;2022-09-09T12:42:26;100874.81;;;40.46;19.76
46954;BME280;32707;43.886;12.874;2022-09-09T12:45:00;100861.72;;;40.41;19.89
46954;BME280;32707;43.886;12.874;2022-09-09T12:48:05;100865.41;;;40.19;19.94
46954;BME280;32707;43.886;12.874;2022-09-09T12:50:37;100875.53;;;40.29;19.73
46954;BME280;32707;43.886;12.874;2022-09-09T12:53:07;100854.75;;;40.27;20.13
46954;BME280;32707;43.886;12.874;2022-09-09T12:55:36;100859.56;;;40.19;20.21
46954;BME280;32707;43.886;12.874;2022-09-09T12:58:04;100864.94;;;40.43;19.82
46954;BME280;32707;43.886;12.874;2022-09-09T13:00:32;100854.56;;;40.53;19.93
46954;BME280;32707;43.886;12.874;2022-09-09T13:03:17;100837.75;;;40.59;19.84
46954;BME280;32707;43.886;12.874;2022-09-09T13:05:43;100864.69;;;40.58;19.68
46954;BME280;32707;43.886;12.874;2022-09-09T13:08:10;100846.50;;;40.31;19.82
46954;BME280;32707;43.886;12.874;2022-09-09T13:13:14;100837.53;;;39.75;20.00
46954;BME280;32707;43.886;12.874;2022-09-09T13:15:49;100841.50;;;39.72;20.09
46954;BME280;32707;43.886;12.874;2022-09-09T13:18:15;100847.88;;;39.59;20.37
46954;BME280;32707;43.886;12.874;2022-09-09T13:20:47;100849.06;;;39.41;20.80
46954;BME280;32707;43.886;12.874;2022-09-09T13:23:13;100846.84;;;38.93;20.90
46954;BME280;32707;43.886;12.874;2022-09-09T13:25:40;100838.94;;;38.41;21.34
46954;BME280;32707;43.886;12.874;2022-09-09T13:28:20;100831.59;;;38.25;21.57
46954;BME280;32707;43.886;12.874;2022-09-09T13:30:59;100826.47;;;37.93;21.97
46954;BME280;32707;43.886;12.874;2022-09-09T13:33:38;100820.19;;;37.60;22.25
46954;BME280;32707;43.886;12.874;2022-09-09T13:36:09;100815.34;;;37.15;22.20
46954;BME280;32707;43.886;12.874;2022-09-09T13:38:38;100818.94;;;36.75;22.62
46954;BME280;32707;43.886;12.874;2022-09-09T13:41:08;100812.50;;;36.41;23.16
46954;BME280;32707;43.886;12.874;2022-09-09T13:43:42;100819.66;;;35.86;23.43
46954;BME280;32707;43.886;12.874;2022-09-09T13:48:59;100808.84;;;35.05;24.38
46954;BME280;32707;43.886;12.874;2022-09-09T13:51:45;100804.56;;;34.91;23.88
46954;BME280;32707;43.886;12.874;2022-09-09T13:54:17;100809.47;;;34.76;24.22
46954;BME280;32707;43.886;12.874;2022-09-09T13:56:54;100813.22;;;34.67;24.28
46954;BME280;32707;43.886;12.874;2022-09-09T13:59:23;100819.69;;;34.53;24.07
46954;BME280;32707;43.886;12.874;2022-09-09T14:01:51;100814.06;;;34.49;24.27
46954;BME280;32707;43.886;12.874;2022-09-09T14:04:18;100807.94;;;34.47;24.14
46954;BME280;32707;43.886;12.874;2022-09-09T14:06:47;100802.81;;;34.33;24.16
46954;BME280;32707;43.886;12.874;2022-09-09T14:09:17;100798.16;;;34.26;24.18
46954;BME280;32707;43.886;12.874;2022-09-09T14:11:44;100794.44;;;34.25;23.62
46954;BME280;32707;43.886;12.874;2022-09-09T14:14:10;100793.47;;;34.19;23.67
46954;BME280;32707;43.886;12.874;2022-09-09T14:16:36;100803.63;;;34.15;23.58
46954;BME280;32707;43.886;12.874;2022-09-09T14:19:03;100799.44;;;34.06;23.60
46954;BME280;32707;43.886;12.874;2022-09-09T14:21:28;100804.13;;;34.04;23.53
46954;BME280;32707;43.886;12.874;2022-09-09T14:23:57;100800.91;;;34.02;23.79
46954;BME280;32707;43.886;12.874;2022-09-09T14:26:26;100798.63;;;34.06;23.84
46954;BME280;32707;43.886;12.874;2022-09-09T14:28:54;100790.09;;;34.02;24.01
46954;BME280;32707;43.886;12.874;2022-09-09T14:31:21;100796.69;;;34.03;23.47
46954;BME280;32707;43.886;12.874;2022-09-09T14:33:46;100795.88;;;34.12;23.74
46954;BME280;32707;43.886;12.874;2022-09-09T14:36:12;100791.88;;;34.18;23.60
46954;BME280;32707;43.886;12.874;2022-09-09T14:38:40;100793.47;;;34.28;23.45
46954;BME280;32707;43.886;12.874;2022-09-09T14:41:09;100788.97;;;34.27;23.17
46954;BME280;32707;43.886;12.874;2022-09-09T14:43:38;100788.16;;;34.18;23.69
46954;BME280;32707;43.886;12.874;2022-09-09T14:46:08;100787.66;;;34.10;23.56
46954;BME280;32707;43.886;12.874;2022-09-09T14:48:34;100803.16;;;34.07;23.89
46954;BME280;32707;43.886;12.874;2022-09-09T14:51:10;100787.03;;;34.06;23.37
46954;BME280;32707;43.886;12.874;2022-09-09T14:53:38;100786.88;;;34.19;23.32
46954;BME280;32707;43.886;12.874;2022-09-09T14:56:17;100775.91;;;34.23;23.26
46954;BME280;32707;43.886;12.874;2022-09-09T14:58:43;100789.91;;;34.15;23.39
46954;BME280;32707;43.886;12.874;2022-09-09T15:01:14;100780.25;;;34.09;23.54
46954;BME280;32707;43.886;12.874;2022-09-09T15:03:41;100782.69;;;34.01;23.59
46954;BME280;32707;43.886;12.874;2022-09-09T15:06:13;100778.00;;;34.04;23.99
46954;BME280;32707;43.886;12.874;2022-09-09T15:08:41;100780.25;;;34.09;23.59